Chulitna, Alaska
Current Conditions -  °F | °C
As of 5:53 PM on Sunday 23 Nov 2014 (Local Time) from PATK Reporting Station
Clear Clear  
Wind Chill: 25°   Ceiling: Unl
Heat Index: 32°   Visibility: 10mi
Dew Point: 19°   Wind: 8mph
Humidity: 59%   Direction: 360°N
Pressure: 29.53"   Gusts: 17mph
Location:  62.88°N, 149.83°W
Report Text: PATK 240253Z AUTO 36007G15KT 10SM CLR 00/M07 A2953 RMK AO2 SLP004 T00001072 53008 TSNO
Loading
Personal Weather Stations






























Interactive Weather Map New forecast layout! Learn more

10-Day Weather Forecast

Advertisements
Track Severe Weather on mobile